sensor_id;sensor_type;location;lat;lon;timestamp;pressure;altitude;pressure_sealevel;temperature;humidity
60976;BME280;46849;48.154;17.042;2022-08-20T00:02:59;98396.69;;;23.33;75.90
60976;BME280;46849;48.154;17.042;2022-08-20T00:05:47;98412.94;;;23.38;75.23
60976;BME280;46849;48.154;17.042;2022-08-20T00:08:35;98411.78;;;23.12;76.75
60976;BME280;46849;48.154;17.042;2022-08-20T00:11:27;98419.88;;;22.69;79.68
60976;BME280;46849;48.154;17.042;2022-08-20T00:14:12;98423.69;;;22.37;81.61
60976;BME280;46849;48.154;17.042;2022-08-20T00:16:57;98427.25;;;22.67;81.31
60976;BME280;46849;48.154;17.042;2022-08-20T00:19:42;98427.75;;;23.06;78.38
60976;BME280;46849;48.154;17.042;2022-08-20T00:22:27;98430.03;;;23.09;78.63
60976;BME280;46849;48.154;17.042;2022-08-20T00:25:12;98439.16;;;22.93;79.84
60976;BME280;46849;48.154;17.042;2022-08-20T00:27:57;98440.28;;;23.05;79.08
60976;BME280;46849;48.154;17.042;2022-08-20T00:30:44;98425.84;;;23.28;78.37
60976;BME280;46849;48.154;17.042;2022-08-20T00:33:29;98429.94;;;23.31;78.01
60976;BME280;46849;48.154;17.042;2022-08-20T00:36:15;98427.63;;;23.14;79.36
60976;BME280;46849;48.154;17.042;2022-08-20T00:39:02;98422.66;;;23.11;79.27
60976;BME280;46849;48.154;17.042;2022-08-20T00:41:48;98416.81;;;23.00;80.17
60976;BME280;46849;48.154;17.042;2022-08-20T00:44:35;98425.72;;;22.35;84.17
60976;BME280;46849;48.154;17.042;2022-08-20T00:47:19;98443.47;;;22.06;86.73
60976;BME280;46849;48.154;17.042;2022-08-20T00:50:05;98436.25;;;21.85;87.63
60976;BME280;46849;48.154;17.042;2022-08-20T00:52:51;98413.75;;;22.31;84.95
60976;BME280;46849;48.154;17.042;2022-08-20T00:55:37;98396.94;;;22.74;81.59
60976;BME280;46849;48.154;17.042;2022-08-20T00:58:23;98385.03;;;22.77;80.54
60976;BME280;46849;48.154;17.042;2022-08-20T01:01:08;98385.06;;;23.12;77.74
60976;BME280;46849;48.154;17.042;2022-08-20T01:03:53;98387.41;;;23.29;75.69
60976;BME280;46849;48.154;17.042;2022-08-20T01:06:40;98406.31;;;22.70;78.45
60976;BME280;46849;48.154;17.042;2022-08-20T01:09:26;98418.00;;;22.03;82.22
60976;BME280;46849;48.154;17.042;2022-08-20T01:12:12;98414.22;;;22.57;79.37
60976;BME280;46849;48.154;17.042;2022-08-20T01:15:00;98390.97;;;23.08;77.02
60976;BME280;46849;48.154;17.042;2022-08-20T01:17:49;98387.91;;;23.04;75.71
60976;BME280;46849;48.154;17.042;2022-08-20T01:20:40;98376.50;;;22.60;77.54
60976;BME280;46849;48.154;17.042;2022-08-20T01:23:53;98358.28;;;22.70;77.45
60976;BME280;46849;48.154;17.042;2022-08-20T01:26:43;98322.16;;;22.46;77.33
60976;BME280;46849;48.154;17.042;2022-08-20T01:29:36;98316.22;;;21.78;80.11
60976;BME280;46849;48.154;17.042;2022-08-20T01:32:23;98287.59;;;21.13;84.15
60976;BME280;46849;48.154;17.042;2022-08-20T01:35:08;98253.72;;;20.46;90.12
60976;BME280;46849;48.154;17.042;2022-08-20T01:37:55;98243.06;;;20.31;91.92
60976;BME280;46849;48.154;17.042;2022-08-20T01:43:36;98250.75;;;21.53;84.82
60976;BME280;46849;48.154;17.042;2022-08-20T01:46:34;98249.91;;;21.31;86.40
60976;BME280;46849;48.154;17.042;2022-08-20T01:49:29;98260.75;;;20.39;92.39
60976;BME280;46849;48.154;17.042;2022-08-20T01:52:50;98262.56;;;20.00;95.67
60976;BME280;46849;48.154;17.042;2022-08-20T01:55:38;98259.94;;;20.23;94.17
60976;BME280;46849;48.154;17.042;2022-08-20T01:58:24;98269.56;;;20.01;94.76
60976;BME280;46849;48.154;17.042;2022-08-20T02:01:19;98272.84;;;20.26;92.83
60976;BME280;46849;48.154;17.042;2022-08-20T02:04:06;98283.53;;;20.41;91.84
60976;BME280;46849;48.154;17.042;2022-08-20T02:06:57;98271.63;;;20.98;88.87
60976;BME280;46849;48.154;17.042;2022-08-20T02:09:42;98276.13;;;20.82;88.59
60976;BME280;46849;48.154;17.042;2022-08-20T02:12:27;98271.25;;;20.55;90.13
60976;BME280;46849;48.154;17.042;2022-08-20T02:15:13;98282.19;;;20.76;88.28
60976;BME280;46849;48.154;17.042;2022-08-20T02:17:58;98286.28;;;20.63;88.48
60976;BME280;46849;48.154;17.042;2022-08-20T02:20:43;98297.31;;;20.90;87.30
60976;BME280;46849;48.154;17.042;2022-08-20T02:23:29;98284.16;;;21.49;84.68
60976;BME280;46849;48.154;17.042;2022-08-20T02:26:14;98280.91;;;21.54;82.65
60976;BME280;46849;48.154;17.042;2022-08-20T02:29:04;98297.13;;;21.37;83.04
60976;BME280;46849;48.154;17.042;2022-08-20T02:31:50;98290.34;;;20.74;86.34
60976;BME280;46849;48.154;17.042;2022-08-20T02:34:34;98297.09;;;21.00;85.29
60976;BME280;46849;48.154;17.042;2022-08-20T02:37:19;98301.31;;;20.41;88.08
60976;BME280;46849;48.154;17.042;2022-08-20T02:40:06;98301.47;;;20.93;84.82
60976;BME280;46849;48.154;17.042;2022-08-20T02:42:52;98310.06;;;20.50;87.13
60976;BME280;46849;48.154;17.042;2022-08-20T02:45:37;98320.59;;;20.43;87.23
60976;BME280;46849;48.154;17.042;2022-08-20T02:48:27;98332.56;;;20.39;86.96
60976;BME280;46849;48.154;17.042;2022-08-20T02:51:12;98332.13;;;20.12;88.97
60976;BME280;46849;48.154;17.042;2022-08-20T02:53:57;98332.81;;;19.82;91.28
60976;BME280;46849;48.154;17.042;2022-08-20T02:56:42;98338.91;;;19.91;90.30
60976;BME280;46849;48.154;17.042;2022-08-20T02:59:27;98351.16;;;20.24;89.67
60976;BME280;46849;48.154;17.042;2022-08-20T03:02:14;98352.00;;;20.63;86.25
60976;BME280;46849;48.154;17.042;2022-08-20T03:05:00;98346.34;;;20.42;86.00
60976;BME280;46849;48.154;17.042;2022-08-20T03:07:47;98359.34;;;20.37;86.08
60976;BME280;46849;48.154;17.042;2022-08-20T03:10:34;98366.03;;;20.33;87.79
60976;BME280;46849;48.154;17.042;2022-08-20T03:13:22;98373.09;;;19.94;89.09
60976;BME280;46849;48.154;17.042;2022-08-20T03:16:07;98379.34;;;19.78;89.67
60976;BME280;46849;48.154;17.042;2022-08-20T03:18:52;98376.03;;;19.76;90.80
60976;BME280;46849;48.154;17.042;2022-08-20T03:21:37;98367.25;;;19.99;89.89
60976;BME280;46849;48.154;17.042;2022-08-20T03:24:21;98368.47;;;19.56;91.56
60976;BME280;46849;48.154;17.042;2022-08-20T03:27:06;98370.09;;;19.65;92.35
60976;BME280;46849;48.154;17.042;2022-08-20T03:29:51;98364.66;;;19.90;90.20
60976;BME280;46849;48.154;17.042;2022-08-20T03:32:37;98366.28;;;19.68;92.22
60976;BME280;46849;48.154;17.042;2022-08-20T03:35:24;98363.16;;;19.56;93.07
60976;BME280;46849;48.154;17.042;2022-08-20T03:38:12;98362.88;;;19.42;94.71
60976;BME280;46849;48.154;17.042;2022-08-20T03:40:57;98356.41;;;19.45;94.69
60976;BME280;46849;48.154;17.042;2022-08-20T03:43:44;98348.28;;;19.47;95.08
60976;BME280;46849;48.154;17.042;2022-08-20T03:46:28;98343.47;;;19.50;94.17
60976;BME280;46849;48.154;17.042;2022-08-20T03:49:14;98350.50;;;19.66;93.29
60976;BME280;46849;48.154;17.042;2022-08-20T03:51:59;98350.94;;;19.47;94.53
60976;BME280;46849;48.154;17.042;2022-08-20T03:54:48;98350.13;;;19.38;95.65
60976;BME280;46849;48.154;17.042;2022-08-20T03:57:34;98349.88;;;19.24;96.67
60976;BME280;46849;48.154;17.042;2022-08-20T04:00:26;98355.94;;;19.73;93.42
60976;BME280;46849;48.154;17.042;2022-08-20T04:03:11;98351.59;;;20.12;90.27
60976;BME280;46849;48.154;17.042;2022-08-20T04:05:55;98351.84;;;20.17;90.49
60976;BME280;46849;48.154;17.042;2022-08-20T04:08:42;98363.50;;;19.85;92.34
60976;BME280;46849;48.154;17.042;2022-08-20T04:11:27;98355.38;;;19.54;93.83
60976;BME280;46849;48.154;17.042;2022-08-20T04:14:12;98356.63;;;19.67;94.06
60976;BME280;46849;48.154;17.042;2022-08-20T04:16:56;98361.94;;;19.67;93.52
60976;BME280;46849;48.154;17.042;2022-08-20T04:19:41;98349.66;;;20.21;89.98
60976;BME280;46849;48.154;17.042;2022-08-20T04:22:27;98364.47;;;19.60;93.39
60976;BME280;46849;48.154;17.042;2022-08-20T04:25:12;98353.53;;;19.63;93.13
60976;BME280;46849;48.154;17.042;2022-08-20T04:27:59;98350.66;;;19.97;91.64
60976;BME280;46849;48.154;17.042;2022-08-20T04:30:45;98354.00;;;19.90;91.94
60976;BME280;46849;48.154;17.042;2022-08-20T04:33:29;98364.03;;;19.80;92.15
60976;BME280;46849;48.154;17.042;2022-08-20T04:36:15;98360.84;;;19.85;92.45
60976;BME280;46849;48.154;17.042;2022-08-20T04:39:02;98356.50;;;20.39;89.49
60976;BME280;46849;48.154;17.042;2022-08-20T04:41:47;98351.41;;;20.52;87.83
60976;BME280;46849;48.154;17.042;2022-08-20T04:44:32;98360.22;;;21.07;85.47
60976;BME280;46849;48.154;17.042;2022-08-20T04:47:20;98356.63;;;20.99;84.96
60976;BME280;46849;48.154;17.042;2022-08-20T04:50:07;98364.75;;;20.67;86.52
60976;BME280;46849;48.154;17.042;2022-08-20T04:52:53;98359.09;;;20.47;88.11
60976;BME280;46849;48.154;17.042;2022-08-20T04:55:40;98370.19;;;20.12;90.28
60976;BME280;46849;48.154;17.042;2022-08-20T04:58:34;98371.53;;;19.76;92.92
60976;BME280;46849;48.154;17.042;2022-08-20T05:01:19;98377.44;;;19.87;92.53
60976;BME280;46849;48.154;17.042;2022-08-20T05:04:05;98363.97;;;20.20;90.72
60976;BME280;46849;48.154;17.042;2022-08-20T05:06:50;98361.75;;;20.09;91.31
60976;BME280;46849;48.154;17.042;2022-08-20T05:09:34;98355.06;;;20.13;91.15
60976;BME280;46849;48.154;17.042;2022-08-20T05:12:19;98349.94;;;20.50;89.02
60976;BME280;46849;48.154;17.042;2022-08-20T05:15:04;98361.91;;;20.69;87.35
60976;BME280;46849;48.154;17.042;2022-08-20T05:17:54;98369.81;;;20.39;89.60
60976;BME280;46849;48.154;17.042;2022-08-20T05:20:40;98379.41;;;20.25;90.48
60976;BME280;46849;48.154;17.042;2022-08-20T05:23:25;98372.00;;;20.12;90.54
60976;BME280;46849;48.154;17.042;2022-08-20T05:26:11;98360.47;;;19.64;94.32
60976;BME280;46849;48.154;17.042;2022-08-20T05:28:57;98348.00;;;19.33;96.79
60976;BME280;46849;48.154;17.042;2022-08-20T05:31:42;98347.59;;;19.53;96.68
60976;BME280;46849;48.154;17.042;2022-08-20T05:34:27;98369.91;;;19.67;94.85
60976;BME280;46849;48.154;17.042;2022-08-20T05:37:12;98366.53;;;20.52;89.69
60976;BME280;46849;48.154;17.042;2022-08-20T05:39:57;98369.69;;;21.24;85.07
60976;BME280;46849;48.154;17.042;2022-08-20T05:42:42;98367.72;;;20.88;86.67
60976;BME280;46849;48.154;17.042;2022-08-20T05:45:27;98363.69;;;21.07;85.80
60976;BME280;46849;48.154;17.042;2022-08-20T05:48:19;98377.38;;;21.49;84.01
60976;BME280;46849;48.154;17.042;2022-08-20T05:51:04;98379.91;;;21.73;82.54
60976;BME280;46849;48.154;17.042;2022-08-20T05:53:49;98408.31;;;21.81;82.25
60976;BME280;46849;48.154;17.042;2022-08-20T05:56:34;98411.28;;;22.51;78.94
60976;BME280;46849;48.154;17.042;2022-08-20T05:59:19;98424.00;;;23.29;74.75
60976;BME280;46849;48.154;17.042;2022-08-20T06:02:05;98429.31;;;23.57;74.25
60976;BME280;46849;48.154;17.042;2022-08-20T06:05:11;98430.69;;;23.95;71.91
60976;BME280;46849;48.154;17.042;2022-08-20T06:07:55;98447.69;;;23.74;71.78
60976;BME280;46849;48.154;17.042;2022-08-20T06:10:40;98446.56;;;23.55;74.39
60976;BME280;46849;48.154;17.042;2022-08-20T06:13:24;98442.56;;;24.35;70.43
60976;BME280;46849;48.154;17.042;2022-08-20T06:16:10;98447.16;;;23.99;73.08
60976;BME280;46849;48.154;17.042;2022-08-20T06:18:56;98427.09;;;24.23;72.77
60976;BME280;46849;48.154;17.042;2022-08-20T06:21:41;98427.91;;;24.31;72.06
60976;BME280;46849;48.154;17.042;2022-08-20T06:24:25;98424.63;;;24.29;68.86
60976;BME280;46849;48.154;17.042;2022-08-20T06:27:14;98414.69;;;24.09;69.68
60976;BME280;46849;48.154;17.042;2022-08-20T06:29:59;98410.38;;;23.59;70.84
60976;BME280;46849;48.154;17.042;2022-08-20T06:32:44;98405.16;;;23.08;73.24
60976;BME280;46849;48.154;17.042;2022-08-20T06:35:28;98419.69;;;23.63;71.29
60976;BME280;46849;48.154;17.042;2022-08-20T06:38:13;98425.13;;;23.90;69.20
60976;BME280;46849;48.154;17.042;2022-08-20T06:40:58;98426.28;;;24.43;68.37
60976;BME280;46849;48.154;17.042;2022-08-20T06:43:43;98425.44;;;24.29;67.46
60976;BME280;46849;48.154;17.042;2022-08-20T06:46:28;98419.50;;;24.81;65.53
60976;BME280;46849;48.154;17.042;2022-08-20T06:49:12;98420.72;;;24.52;66.64
60976;BME280;46849;48.154;17.042;2022-08-20T06:51:57;98428.13;;;24.36;67.84
60976;BME280;46849;48.154;17.042;2022-08-20T06:54:43;98434.31;;;24.30;67.66
60976;BME280;46849;48.154;17.042;2022-08-20T06:57:28;98439.28;;;24.67;66.68
60976;BME280;46849;48.154;17.042;2022-08-20T07:00:17;98435.97;;;24.71;65.40
60976;BME280;46849;48.154;17.042;2022-08-20T07:03:03;98437.22;;;25.09;63.54
60976;BME280;46849;48.154;17.042;2022-08-20T07:05:48;98430.00;;;24.76;64.65
60976;BME280;46849;48.154;17.042;2022-08-20T07:08:34;98434.91;;;24.39;65.32
60976;BME280;46849;48.154;17.042;2022-08-20T07:11:18;98424.97;;;24.12;65.42
60976;BME280;46849;48.154;17.042;2022-08-20T07:14:04;98421.72;;;23.61;68.06
60976;BME280;46849;48.154;17.042;2022-08-20T07:16:49;98423.16;;;22.93;70.48
60976;BME280;46849;48.154;17.042;2022-08-20T07:19:35;98425.66;;;22.72;72.82
60976;BME280;46849;48.154;17.042;2022-08-20T07:22:21;98428.34;;;23.36;69.35
60976;BME280;46849;48.154;17.042;2022-08-20T07:25:09;98430.78;;;23.60;69.13
60976;BME280;46849;48.154;17.042;2022-08-20T07:28:03;98435.59;;;23.92;67.99
60976;BME280;46849;48.154;17.042;2022-08-20T07:30:49;98446.41;;;24.19;67.42
60976;BME280;46849;48.154;17.042;2022-08-20T07:33:54;98447.09;;;24.41;66.50
60976;BME280;46849;48.154;17.042;2022-08-20T07:36:39;98457.03;;;25.02;64.65
60976;BME280;46849;48.154;17.042;2022-08-20T07:39:23;98447.13;;;25.09;63.41
60976;BME280;46849;48.154;17.042;2022-08-20T07:42:08;98460.47;;;24.61;65.71
60976;BME280;46849;48.154;17.042;2022-08-20T07:44:53;98463.59;;;24.99;64.60
60976;BME280;46849;48.154;17.042;2022-08-20T07:47:40;98462.91;;;25.65;62.13
60976;BME280;46849;48.154;17.042;2022-08-20T07:50:25;98467.34;;;25.91;60.19
60976;BME280;46849;48.154;17.042;2022-08-20T07:53:10;98470.75;;;26.12;58.21
60976;BME280;46849;48.154;17.042;2022-08-20T07:55:55;98460.94;;;26.31;56.78
60976;BME280;46849;48.154;17.042;2022-08-20T07:58:43;98473.59;;;25.58;58.38
60976;BME280;46849;48.154;17.042;2022-08-20T08:01:39;98480.41;;;26.20;57.03
60976;BME280;46849;48.154;17.042;2022-08-20T08:04:27;98475.06;;;26.52;55.89
60976;BME280;46849;48.154;17.042;2022-08-20T08:07:15;98468.03;;;25.53;57.94
60976;BME280;46849;48.154;17.042;2022-08-20T08:10:00;98454.22;;;25.63;58.61
60976;BME280;46849;48.154;17.042;2022-08-20T08:12:49;98462.97;;;25.31;58.57
60976;BME280;46849;48.154;17.042;2022-08-20T08:15:35;98459.50;;;25.03;59.62
60976;BME280;46849;48.154;17.042;2022-08-20T08:18:25;98468.13;;;25.05;59.35
60976;BME280;46849;48.154;17.042;2022-08-20T08:21:11;98466.28;;;24.99;60.04
60976;BME280;46849;48.154;17.042;2022-08-20T08:23:57;98453.50;;;24.94;60.75
60976;BME280;46849;48.154;17.042;2022-08-20T08:26:41;98456.53;;;25.45;58.33
60976;BME280;46849;48.154;17.042;2022-08-20T08:29:26;98454.84;;;25.58;57.96
60976;BME280;46849;48.154;17.042;2022-08-20T08:32:11;98443.75;;;25.48;57.87
60976;BME280;46849;48.154;17.042;2022-08-20T08:34:56;98446.38;;;25.61;57.71
60976;BME280;46849;48.154;17.042;2022-08-20T08:37:41;98447.31;;;25.28;58.08
60976;BME280;46849;48.154;17.042;2022-08-20T08:40:29;98449.78;;;25.09;58.62
60976;BME280;46849;48.154;17.042;2022-08-20T08:43:15;98445.44;;;24.47;60.69
60976;BME280;46849;48.154;17.042;2022-08-20T08:46:04;98451.19;;;24.23;61.62
60976;BME280;46849;48.154;17.042;2022-08-20T08:48:51;98442.66;;;24.13;60.04
60976;BME280;46849;48.154;17.042;2022-08-20T08:51:44;98439.03;;;24.28;59.90
60976;BME280;46849;48.154;17.042;2022-08-20T08:54:32;98443.13;;;24.17;59.35
60976;BME280;46849;48.154;17.042;2022-08-20T08:57:18;98435.31;;;24.29;58.94
60976;BME280;46849;48.154;17.042;2022-08-20T09:00:08;98435.56;;;24.68;58.29
60976;BME280;46849;48.154;17.042;2022-08-20T09:03:06;98431.38;;;24.18;59.86
60976;BME280;46849;48.154;17.042;2022-08-20T09:05:54;98422.53;;;24.17;59.82
60976;BME280;46849;48.154;17.042;2022-08-20T09:08:51;98416.00;;;24.54;59.40
60976;BME280;46849;48.154;17.042;2022-08-20T09:11:49;98411.06;;;24.51;59.71
60976;BME280;46849;48.154;17.042;2022-08-20T09:14:34;98412.47;;;24.19;60.72
60976;BME280;46849;48.154;17.042;2022-08-20T09:17:20;98407.97;;;24.47;60.30
60976;BME280;46849;48.154;17.042;2022-08-20T09:20:06;98406.34;;;24.59;60.10
60976;BME280;46849;48.154;17.042;2022-08-20T09:22:53;98412.50;;;24.46;60.31
60976;BME280;46849;48.154;17.042;2022-08-20T09:25:38;98410.66;;;24.33;60.28
60976;BME280;46849;48.154;17.042;2022-08-20T09:28:23;98399.44;;;23.96;61.34
60976;BME280;46849;48.154;17.042;2022-08-20T09:31:09;98404.34;;;23.92;61.90
60976;BME280;46849;48.154;17.042;2022-08-20T09:33:54;98399.09;;;24.26;61.21
60976;BME280;46849;48.154;17.042;2022-08-20T09:36:39;98409.34;;;24.16;61.66
60976;BME280;46849;48.154;17.042;2022-08-20T09:39:23;98408.78;;;24.20;61.66
60976;BME280;46849;48.154;17.042;2022-08-20T09:42:20;98412.91;;;24.43;61.13
60976;BME280;46849;48.154;17.042;2022-08-20T09:45:05;98407.97;;;23.71;63.32
60976;BME280;46849;48.154;17.042;2022-08-20T09:47:50;98415.06;;;23.92;63.48
60976;BME280;46849;48.154;17.042;2022-08-20T09:50:35;98414.75;;;24.77;60.65
60976;BME280;46849;48.154;17.042;2022-08-20T09:53:21;98417.63;;;24.55;62.12
60976;BME280;46849;48.154;17.042;2022-08-20T09:56:05;98426.50;;;24.62;60.78
60976;BME280;46849;48.154;17.042;2022-08-20T09:58:53;98416.84;;;24.61;60.53
60976;BME280;46849;48.154;17.042;2022-08-20T10:01:38;98423.41;;;24.38;65.43
60976;BME280;46849;48.154;17.042;2022-08-20T10:04:23;98421.34;;;24.47;68.28
60976;BME280;46849;48.154;17.042;2022-08-20T10:07:08;98429.38;;;24.81;67.31
60976;BME280;46849;48.154;17.042;2022-08-20T10:09:53;98435.56;;;24.68;61.82
60976;BME280;46849;48.154;17.042;2022-08-20T10:12:37;98428.38;;;24.89;63.37
60976;BME280;46849;48.154;17.042;2022-08-20T10:15:24;98436.19;;;24.77;61.64
60976;BME280;46849;48.154;17.042;2022-08-20T10:18:09;98429.19;;;24.62;61.67
60976;BME280;46849;48.154;17.042;2022-08-20T10:20:54;98429.19;;;24.82;60.85
60976;BME280;46849;48.154;17.042;2022-08-20T10:23:39;98436.00;;;24.92;60.87
60976;BME280;46849;48.154;17.042;2022-08-20T10:26:24;98445.03;;;24.64;62.66
60976;BME280;46849;48.154;17.042;2022-08-20T10:29:09;98435.97;;;25.19;58.96
60976;BME280;46849;48.154;17.042;2022-08-20T10:31:54;98437.44;;;24.94;59.95
60976;BME280;46849;48.154;17.042;2022-08-20T10:34:43;98423.56;;;25.31;59.35
60976;BME280;46849;48.154;17.042;2022-08-20T10:37:28;98423.59;;;25.91;57.34
60976;BME280;46849;48.154;17.042;2022-08-20T10:40:13;98413.44;;;26.00;57.28
60976;BME280;46849;48.154;17.042;2022-08-20T10:43:01;98418.34;;;25.64;58.05
60976;BME280;46849;48.154;17.042;2022-08-20T10:45:46;98418.34;;;25.70;57.71
60976;BME280;46849;48.154;17.042;2022-08-20T10:48:31;98410.97;;;25.45;58.25
60976;BME280;46849;48.154;17.042;2022-08-20T10:51:16;98404.78;;;25.45;58.16
60976;BME280;46849;48.154;17.042;2022-08-20T10:54:01;98410.53;;;25.62;57.98
60976;BME280;46849;48.154;17.042;2022-08-20T10:56:46;98412.00;;;25.97;56.78
60976;BME280;46849;48.154;17.042;2022-08-20T10:59:31;98413.22;;;25.62;57.48
60976;BME280;46849;48.154;17.042;2022-08-20T11:02:19;98415.13;;;25.87;56.93
60976;BME280;46849;48.154;17.042;2022-08-20T11:05:05;98401.75;;;25.80;56.98
60976;BME280;46849;48.154;17.042;2022-08-20T11:07:50;98396.72;;;25.98;57.07
60976;BME280;46849;48.154;17.042;2022-08-20T11:10:35;98391.81;;;25.28;58.36
60976;BME280;46849;48.154;17.042;2022-08-20T11:13:21;98393.78;;;25.67;57.40
60976;BME280;46849;48.154;17.042;2022-08-20T11:16:06;98392.84;;;25.41;58.51
60976;BME280;46849;48.154;17.042;2022-08-20T11:18:51;98389.75;;;25.37;57.79
60976;BME280;46849;48.154;17.042;2022-08-20T11:21:36;98390.25;;;24.87;59.48
60976;BME280;46849;48.154;17.042;2022-08-20T11:24:21;98392.66;;;25.22;58.42
60976;BME280;46849;48.154;17.042;2022-08-20T11:27:07;98406.13;;;25.02;59.00
60976;BME280;46849;48.154;17.042;2022-08-20T11:29:52;98409.03;;;24.93;60.01
60976;BME280;46849;48.154;17.042;2022-08-20T11:32:38;98405.50;;;24.66;59.46
60976;BME280;46849;48.154;17.042;2022-08-20T11:35:23;98415.59;;;24.70;60.10
60976;BME280;46849;48.154;17.042;2022-08-20T11:38:12;98418.47;;;24.62;59.46
60976;BME280;46849;48.154;17.042;2022-08-20T11:40:57;98414.75;;;24.77;60.41
60976;BME280;46849;48.154;17.042;2022-08-20T11:43:42;98409.81;;;24.94;59.93
60976;BME280;46849;48.154;17.042;2022-08-20T11:46:26;98418.41;;;25.30;58.98
60976;BME280;46849;48.154;17.042;2022-08-20T11:49:11;98411.22;;;25.30;58.42
60976;BME280;46849;48.154;17.042;2022-08-20T11:51:56;98412.69;;;25.06;58.59
60976;BME280;46849;48.154;17.042;2022-08-20T11:54:41;98419.66;;;25.27;59.62
60976;BME280;46849;48.154;17.042;2022-08-20T11:57:30;98415.91;;;25.42;57.45
60976;BME280;46849;48.154;17.042;2022-08-20T12:00:19;98426.84;;;25.47;58.69
60976;BME280;46849;48.154;17.042;2022-08-20T12:03:06;98429.78;;;25.91;57.44
60976;BME280;46849;48.154;17.042;2022-08-20T12:05:51;98432.47;;;25.91;57.79
60976;BME280;46849;48.154;17.042;2022-08-20T12:08:36;98432.22;;;26.00;56.46
60976;BME280;46849;48.154;17.042;2022-08-20T12:11:21;98429.97;;;25.97;58.91
60976;BME280;46849;48.154;17.042;2022-08-20T12:14:06;98429.28;;;26.08;56.19
60976;BME280;46849;48.154;17.042;2022-08-20T12:16:50;98429.41;;;25.81;56.67
60976;BME280;46849;48.154;17.042;2022-08-20T12:19:40;98428.53;;;25.34;58.25
60976;BME280;46849;48.154;17.042;2022-08-20T12:22:25;98420.31;;;25.22;58.42
60976;BME280;46849;48.154;17.042;2022-08-20T12:25:10;98421.38;;;25.01;58.96
60976;BME280;46849;48.154;17.042;2022-08-20T12:27:55;98417.81;;;25.28;59.39
60976;BME280;46849;48.154;17.042;2022-08-20T12:30:40;98412.78;;;25.52;58.67
60976;BME280;46849;48.154;17.042;2022-08-20T12:33:25;98408.84;;;25.54;58.36
60976;BME280;46849;48.154;17.042;2022-08-20T12:36:09;98399.16;;;25.60;58.29
60976;BME280;46849;48.154;17.042;2022-08-20T12:38:56;98400.78;;;25.61;58.20
60976;BME280;46849;48.154;17.042;2022-08-20T12:41:49;98412.41;;;26.01;57.26
60976;BME280;46849;48.154;17.042;2022-08-20T12:44:34;98408.16;;;26.18;56.90
60976;BME280;46849;48.154;17.042;2022-08-20T12:47:24;98404.16;;;26.28;55.74
60976;BME280;46849;48.154;17.042;2022-08-20T12:50:11;98400.19;;;26.05;57.06
60976;BME280;46849;48.154;17.042;2022-08-20T12:52:56;98406.00;;;26.66;55.53
60976;BME280;46849;48.154;17.042;2022-08-20T12:55:41;98395.13;;;26.22;55.77
60976;BME280;46849;48.154;17.042;2022-08-20T12:58:26;98393.03;;;25.92;56.39
60976;BME280;46849;48.154;17.042;2022-08-20T13:01:11;98385.88;;;25.79;56.58
60976;BME280;46849;48.154;17.042;2022-08-20T13:03:58;98378.84;;;25.85;56.80
60976;BME280;46849;48.154;17.042;2022-08-20T13:06:44;98373.41;;;25.52;57.50
60976;BME280;46849;48.154;17.042;2022-08-20T13:09:29;98381.50;;;25.32;58.04
60976;BME280;46849;48.154;17.042;2022-08-20T13:12:15;98379.25;;;25.36;58.16
60976;BME280;46849;48.154;17.042;2022-08-20T13:14:59;98379.88;;;25.38;58.92
60976;BME280;46849;48.154;17.042;2022-08-20T13:17:44;98373.72;;;25.76;56.88
60976;BME280;46849;48.154;17.042;2022-08-20T13:20:30;98378.81;;;25.39;58.70
60976;BME280;46849;48.154;17.042;2022-08-20T13:23:15;98378.22;;;25.30;58.74
60976;BME280;46849;48.154;17.042;2022-08-20T13:26:01;98377.66;;;25.14;58.45
60976;BME280;46849;48.154;17.042;2022-08-20T13:28:45;98380.38;;;24.87;59.11
60976;BME280;46849;48.154;17.042;2022-08-20T13:31:31;98372.75;;;24.77;60.50
60976;BME280;46849;48.154;17.042;2022-08-20T13:34:17;98376.03;;;24.93;59.49
60976;BME280;46849;48.154;17.042;2022-08-20T13:37:17;98380.16;;;24.75;60.28
60976;BME280;46849;48.154;17.042;2022-08-20T13:40:04;98373.38;;;25.00;58.91
60976;BME280;46849;48.154;17.042;2022-08-20T13:42:49;98383.25;;;24.45;60.76
60976;BME280;46849;48.154;17.042;2022-08-20T13:45:35;98376.25;;;24.44;61.75
60976;BME280;46849;48.154;17.042;2022-08-20T13:48:20;98368.03;;;24.66;60.15
60976;BME280;46849;48.154;17.042;2022-08-20T13:51:05;98368.84;;;24.26;61.63
60976;BME280;46849;48.154;17.042;2022-08-20T13:53:50;98377.28;;;24.22;62.25
60976;BME280;46849;48.154;17.042;2022-08-20T13:56:36;98375.25;;;24.38;60.96
60976;BME280;46849;48.154;17.042;2022-08-20T13:59:21;98379.75;;;24.24;61.18
60976;BME280;46849;48.154;17.042;2022-08-20T14:02:07;98381.56;;;24.10;61.78
60976;BME280;46849;48.154;17.042;2022-08-20T14:04:53;98377.78;;;23.77;62.68
60976;BME280;46849;48.154;17.042;2022-08-20T14:07:39;98381.09;;;23.86;62.90
60976;BME280;46849;48.154;17.042;2022-08-20T14:10:24;98375.78;;;24.13;62.56
60976;BME280;46849;48.154;17.042;2022-08-20T14:13:18;98365.97;;;24.20;63.14
60976;BME280;46849;48.154;17.042;2022-08-20T14:16:03;98381.81;;;24.35;61.97
60976;BME280;46849;48.154;17.042;2022-08-20T14:18:48;98374.38;;;24.17;62.08
60976;BME280;46849;48.154;17.042;2022-08-20T14:21:33;98379.97;;;24.43;61.14
60976;BME280;46849;48.154;17.042;2022-08-20T14:24:17;98382.56;;;23.95;62.57
60976;BME280;46849;48.154;17.042;2022-08-20T14:27:04;98383.63;;;23.52;63.52
60976;BME280;46849;48.154;17.042;2022-08-20T14:29:49;98376.03;;;23.56;63.72
60976;BME280;46849;48.154;17.042;2022-08-20T14:32:34;98385.06;;;23.48;63.72
60976;BME280;46849;48.154;17.042;2022-08-20T14:35:19;98378.41;;;23.79;62.98